createdAt,value
2023-02-11T00:01:19.990Z,41.23
2023-02-11T00:03:46.785Z,43.03
2023-02-11T00:06:13.493Z,42.63
2023-02-11T00:08:40.599Z,37.93
2023-02-11T00:11:07.930Z,48.70
2023-02-11T00:13:34.955Z,46.03
2023-02-11T00:16:07.130Z,44.60
2023-02-11T00:18:34.268Z,44.80
2023-02-11T00:21:01.329Z,46.30
2023-02-11T00:23:28.368Z,44.27
2023-02-11T00:25:54.953Z,44.83
2023-02-11T00:28:21.589Z,46.17
2023-02-11T00:30:55.403Z,41.27
2023-02-11T00:33:22.035Z,40.53
2023-02-11T00:35:49.417Z,43.27
2023-02-11T00:38:16.607Z,46.73
2023-02-11T00:40:43.957Z,41.20
2023-02-11T00:43:10.608Z,42.50
2023-02-11T00:45:37.198Z,48.53
2023-02-11T00:48:03.847Z,46.53
2023-02-11T00:50:30.426Z,43.60
2023-02-11T00:52:57.466Z,45.10
2023-02-11T00:55:24.117Z,42.43
2023-02-11T00:57:50.894Z,45.87
2023-02-11T01:00:17.692Z,39.57
2023-02-11T01:02:45.184Z,42.07
2023-02-11T01:05:11.846Z,43.20
2023-02-11T01:07:38.991Z,43.20
2023-02-11T01:10:06.177Z,38.57
2023-02-11T01:12:35.996Z,43.07
2023-02-11T01:15:04.842Z,41.63
2023-02-11T01:17:33.025Z,40.00
2023-02-11T01:20:00.050Z,43.00
2023-02-11T01:22:26.731Z,40.03
2023-02-11T01:24:53.907Z,38.23
2023-02-11T01:27:20.519Z,40.47
2023-02-11T01:29:47.209Z,44.30
2023-02-11T01:32:13.923Z,37.17
2023-02-11T01:34:40.618Z,41.40
2023-02-11T01:37:07.235Z,41.17
2023-02-11T01:39:34.519Z,47.87
2023-02-11T01:42:01.696Z,45.27
2023-02-11T01:44:36.856Z,48.03
2023-02-11T01:47:06.243Z,44.77
2023-02-11T01:49:36.332Z,37.37
2023-02-11T01:52:03.388Z,46.03
2023-02-11T01:54:53.754Z,39.70
2023-02-11T01:57:25.136Z,43.67
2023-02-11T02:00:26.277Z,43.47
2023-02-11T02:03:19.971Z,40.27
2023-02-11T02:05:55.484Z,46.37
2023-02-11T02:08:38.900Z,43.83
2023-02-11T02:11:05.608Z,47.33
2023-02-11T02:13:34.192Z,40.67
2023-02-11T02:16:03.446Z,53.00
2023-02-11T02:18:37.883Z,42.23
2023-02-11T02:21:16.377Z,49.83
2023-02-11T02:24:04.153Z,44.10
2023-02-11T02:26:44.868Z,38.20
2023-02-11T02:29:34.452Z,41.13
2023-02-11T02:32:40.917Z,41.53
2023-02-11T02:35:23.533Z,32.60
2023-02-11T02:38:13.616Z,47.90
2023-02-11T02:40:48.913Z,40.40
2023-02-11T02:43:17.073Z,45.80
2023-02-11T02:45:44.158Z,41.73
2023-02-11T02:48:27.085Z,44.80
2023-02-11T02:51:09.756Z,44.33
2023-02-11T02:54:24.652Z,42.47
2023-02-11T02:57:10.221Z,44.00
2023-02-11T02:59:54.881Z,38.07
2023-02-11T03:02:38.787Z,45.17
2023-02-11T03:05:21.486Z,44.87
2023-02-11T03:08:09.755Z,39.77
2023-02-11T03:10:43.738Z,44.97
2023-02-11T03:13:11.440Z,37.17
2023-02-11T03:15:42.085Z,43.63
2023-02-11T03:18:11.804Z,39.17
2023-02-11T03:20:41.411Z,36.47
2023-02-11T03:23:28.891Z,43.20
2023-02-11T03:26:01.552Z,47.03
2023-02-11T03:28:44.177Z,44.20
2023-02-11T03:31:17.011Z,36.63
2023-02-11T03:34:08.565Z,32.87
2023-02-11T03:36:35.545Z,37.70
2023-02-11T03:39:04.566Z,40.23
2023-02-11T03:41:33.200Z,47.30
2023-02-11T03:44:00.572Z,44.20
2023-02-11T03:46:37.331Z,43.43
2023-02-11T03:49:09.590Z,42.23
2023-02-11T03:51:37.426Z,42.43
2023-02-11T03:54:10.038Z,40.30
2023-02-11T03:56:45.858Z,41.00
2023-02-11T03:59:12.907Z,35.10
2023-02-11T04:01:39.925Z,36.10
2023-02-11T04:04:06.944Z,43.70
2023-02-11T04:06:33.544Z,38.03
2023-02-11T04:09:00.203Z,36.37
2023-02-11T04:11:26.842Z,41.93
2023-02-11T04:13:53.463Z,44.10
2023-02-11T04:16:20.399Z,38.50
2023-02-11T04:18:47.039Z,33.90
2023-02-11T04:21:13.643Z,39.53
2023-02-11T04:23:40.249Z,40.03
2023-02-11T04:26:07.103Z,34.97
2023-02-11T04:28:34.842Z,41.77
2023-02-11T04:31:01.700Z,45.80
2023-02-11T04:33:28.432Z,42.37
2023-02-11T04:35:55.006Z,40.40
2023-02-11T04:38:24.020Z,42.67
2023-02-11T04:40:51.306Z,47.33
2023-02-11T04:43:17.988Z,38.87
2023-02-11T04:45:45.036Z,42.37
2023-02-11T04:48:11.680Z,40.20
2023-02-11T04:50:38.260Z,37.90
2023-02-11T04:53:04.881Z,49.27
2023-02-11T04:55:31.944Z,37.40
2023-02-11T04:57:58.542Z,42.83
2023-02-11T05:00:25.587Z,35.67
2023-02-11T05:02:52.193Z,40.13
2023-02-11T05:05:18.814Z,37.97
2023-02-11T05:07:45.879Z,41.47
2023-02-11T05:10:12.472Z,45.67
2023-02-11T05:12:39.482Z,38.90
2023-02-11T05:15:06.453Z,42.87
2023-02-11T05:17:33.172Z,41.10
2023-02-11T05:20:00.207Z,40.10
2023-02-11T05:22:26.879Z,43.97
2023-02-11T05:24:53.905Z,37.73
2023-02-11T05:27:20.977Z,42.93
2023-02-11T05:29:47.997Z,41.73
2023-02-11T05:32:14.570Z,49.10
2023-02-11T05:34:41.177Z,46.80
2023-02-11T05:37:07.982Z,42.97
2023-02-11T05:39:35.069Z,40.77
2023-02-11T05:42:01.742Z,44.17
2023-02-11T05:44:28.773Z,48.20
2023-02-11T05:46:55.800Z,51.13
2023-02-11T05:49:22.445Z,47.37
2023-02-11T05:51:49.549Z,46.93
2023-02-11T05:54:16.791Z,43.73
2023-02-11T05:56:44.937Z,54.23
2023-02-11T05:59:14.430Z,45.53
2023-02-11T06:01:41.131Z,53.83
2023-02-11T06:04:08.266Z,48.53
2023-02-11T06:06:34.886Z,49.73
2023-02-11T06:09:01.931Z,49.27
2023-02-11T06:11:28.952Z,55.03
2023-02-11T06:13:55.852Z,59.97
2023-02-11T06:16:23.071Z,51.00
2023-02-11T06:18:49.728Z,49.60
2023-02-11T06:21:16.289Z,60.07
2023-02-11T06:23:43.600Z,49.10
2023-02-11T06:26:17.153Z,52.83
2023-02-11T06:28:44.345Z,48.50
2023-02-11T06:31:11.865Z,48.77
2023-02-11T06:33:39.238Z,49.00
2023-02-11T06:36:15.613Z,45.50
2023-02-11T06:38:42.585Z,54.33
2023-02-11T06:41:11.183Z,45.23
2023-02-11T06:43:38.259Z,44.97
2023-02-11T06:46:05.412Z,47.07
2023-02-11T06:48:32.480Z,50.13
2023-02-11T06:51:04.923Z,50.10
2023-02-11T06:53:41.575Z,46.17
2023-02-11T06:56:11.722Z,50.93
2023-02-11T06:58:38.550Z,47.33
2023-02-11T07:01:07.146Z,47.37
2023-02-11T07:03:36.341Z,52.93
2023-02-11T07:06:05.467Z,54.50
2023-02-11T07:08:36.188Z,49.10
2023-02-11T07:11:16.330Z,54.13
2023-02-11T07:13:43.623Z,50.73
2023-02-11T07:16:13.311Z,51.27
2023-02-11T07:18:40.385Z,52.73
2023-02-11T07:21:08.803Z,48.63
2023-02-11T07:23:35.811Z,53.70
2023-02-11T07:26:11.434Z,49.00
2023-02-11T07:28:38.858Z,46.77
2023-02-11T07:31:13.279Z,55.37
2023-02-11T07:33:40.467Z,58.30
2023-02-11T07:36:09.633Z,50.33
2023-02-11T07:38:37.390Z,56.37
2023-02-11T07:41:06.788Z,51.13
2023-02-11T07:43:34.192Z,51.67
2023-02-11T07:46:07.688Z,59.97
2023-02-11T07:48:34.906Z,57.57
2023-02-11T07:51:12.976Z,49.00
2023-02-11T07:53:40.001Z,52.70
2023-02-11T07:56:07.931Z,54.03
2023-02-11T07:58:34.674Z,50.67
2023-02-11T08:01:07.024Z,58.00
2023-02-11T08:03:35.056Z,47.90
2023-02-11T08:06:09.962Z,58.53
2023-02-11T08:08:36.946Z,46.97
2023-02-11T08:11:15.306Z,56.57
2023-02-11T08:13:42.361Z,56.50
2023-02-11T08:16:09.639Z,58.60
2023-02-11T08:18:37.018Z,57.67
2023-02-11T08:21:08.257Z,68.33
2023-02-11T08:23:39.048Z,55.77
2023-02-11T08:26:09.638Z,58.37
2023-02-11T08:28:37.838Z,63.13
2023-02-11T08:31:19.742Z,60.50
2023-02-11T08:33:46.799Z,62.73
2023-02-11T08:36:16.842Z,54.67
2023-02-11T08:38:44.489Z,66.87
2023-02-11T08:41:11.884Z,57.03
2023-02-11T08:43:41.625Z,54.97
2023-02-11T08:46:11.741Z,58.60
2023-02-11T08:48:38.372Z,61.00
2023-02-11T08:51:09.684Z,72.20
2023-02-11T08:53:37.059Z,53.60
2023-02-11T08:56:03.991Z,65.00
2023-02-11T08:58:30.740Z,60.43
2023-02-11T09:00:57.923Z,63.97
2023-02-11T09:03:24.798Z,63.80
2023-02-11T09:05:53.227Z,60.63
2023-02-11T09:08:20.911Z,57.03
2023-02-11T09:10:47.722Z,63.67
2023-02-11T09:13:14.527Z,62.80
2023-02-11T09:15:41.582Z,63.37
2023-02-11T09:18:08.179Z,66.17
2023-02-11T09:20:34.782Z,63.83
2023-02-11T09:23:01.697Z,72.40
2023-02-11T09:25:28.549Z,73.50
2023-02-11T09:27:55.724Z,77.30
2023-02-11T09:30:22.688Z,65.97
2023-02-11T09:32:49.605Z,65.30
2023-02-11T09:35:16.755Z,68.37
2023-02-11T09:37:43.501Z,77.03
2023-02-11T09:40:11.172Z,78.93
2023-02-11T09:42:43.393Z,69.57
2023-02-11T09:45:18.854Z,64.77
2023-02-11T09:47:49.655Z,72.03
2023-02-11T09:50:22.888Z,70.50
2023-02-11T09:53:10.882Z,62.87
2023-02-11T09:55:42.784Z,74.43
2023-02-11T09:58:21.290Z,75.03
2023-02-11T10:00:59.891Z,75.37
2023-02-11T10:03:56.648Z,65.63
2023-02-11T10:06:29.197Z,73.60
2023-02-11T10:09:23.537Z,76.67
2023-02-11T10:12:15.294Z,84.57
2023-02-11T10:15:06.902Z,75.73
2023-02-11T10:17:52.561Z,81.00
2023-02-11T10:20:30.658Z,71.23
2023-02-11T10:23:08.342Z,82.77
2023-02-11T10:25:38.626Z,77.60
2023-02-11T10:28:20.602Z,81.27
2023-02-11T10:31:21.923Z,78.70
2023-02-11T10:33:58.960Z,81.73
2023-02-11T10:36:36.429Z,75.93
2023-02-11T10:39:13.471Z,73.63
2023-02-11T10:41:44.279Z,72.87
2023-02-11T10:44:22.073Z,88.40
2023-02-11T10:46:49.652Z,82.77
2023-02-11T10:49:36.823Z,77.70
2023-02-11T10:52:32.801Z,78.37
2023-02-11T10:55:02.813Z,77.10
2023-02-11T10:57:38.287Z,90.47
2023-02-11T11:00:22.803Z,88.37
2023-02-11T11:02:56.598Z,82.90
2023-02-11T11:05:48.184Z,82.67
2023-02-11T11:08:16.288Z,86.13
2023-02-11T11:10:44.607Z,85.00
2023-02-11T11:13:23.159Z,77.63
2023-02-11T11:16:12.394Z,87.17
2023-02-11T11:18:47.993Z,77.03
2023-02-11T11:21:44.460Z,77.07
2023-02-11T11:24:19.768Z,77.43
2023-02-11T11:26:48.787Z,77.30
2023-02-11T11:29:35.703Z,81.53
2023-02-11T11:32:06.358Z,74.00
2023-02-11T11:34:37.093Z,80.83
2023-02-11T11:37:24.533Z,72.43
2023-02-11T11:39:56.906Z,95.13
2023-02-11T11:42:32.999Z,81.40
2023-02-11T11:45:02.387Z,79.07
2023-02-11T11:48:06.754Z,79.80
2023-02-11T11:50:55.867Z,80.07
2023-02-11T11:53:43.967Z,74.80
2023-02-11T11:56:29.144Z,88.00
2023-02-11T11:58:56.747Z,80.23
2023-02-11T12:01:41.965Z,91.67
2023-02-11T12:04:30.478Z,87.20
2023-02-11T12:07:25.807Z,88.80
2023-02-11T12:10:07.641Z,82.40
2023-02-11T12:12:40.311Z,81.23
2023-02-11T12:15:29.036Z,79.10
2023-02-11T12:18:09.857Z,92.50
2023-02-11T12:21:15.733Z,81.00
2023-02-11T12:23:55.832Z,90.40
2023-02-11T12:26:28.649Z,81.13
2023-02-11T12:29:28.714Z,89.30
2023-02-11T12:32:10.186Z,89.00
2023-02-11T12:34:37.244Z,98.83
2023-02-11T12:37:49.725Z,88.27
2023-02-11T12:40:16.780Z,82.37
2023-02-11T12:43:20.786Z,92.03
2023-02-11T12:46:42.832Z,82.43
2023-02-11T12:49:46.590Z,81.20
2023-02-11T12:52:31.288Z,81.10
2023-02-11T12:55:07.797Z,83.23
2023-02-11T12:57:37.839Z,74.20
2023-02-11T13:00:07.138Z,88.67
2023-02-11T13:02:41.331Z,90.60
2023-02-11T13:05:26.637Z,79.87
2023-02-11T13:07:58.582Z,89.23
2023-02-11T13:10:37.639Z,75.33
2023-02-11T13:13:22.790Z,81.17
2023-02-11T13:15:49.912Z,78.17
2023-02-11T13:18:40.052Z,78.87
2023-02-11T13:21:40.051Z,79.90
2023-02-11T13:24:07.070Z,86.70
2023-02-11T13:26:45.914Z,81.53
2023-02-11T13:29:38.809Z,92.37
2023-02-11T13:32:13.517Z,87.67
2023-02-11T13:34:40.525Z,78.07
2023-02-11T13:37:21.776Z,79.47
2023-02-11T13:40:02.721Z,82.03
2023-02-11T13:42:31.205Z,78.70
2023-02-11T13:44:58.295Z,68.27
2023-02-11T13:47:33.655Z,85.10
2023-02-11T13:50:02.353Z,77.30
2023-02-11T13:52:38.742Z,74.03
2023-02-11T13:55:21.463Z,76.70
2023-02-11T13:58:08.023Z,67.17
2023-02-11T14:00:34.694Z,77.43
2023-02-11T14:03:28.941Z,68.90
2023-02-11T14:06:31.643Z,79.47
2023-02-11T14:09:09.802Z,71.40
2023-02-11T14:11:49.912Z,60.63
2023-02-11T14:14:27.627Z,74.47
2023-02-11T14:17:02.871Z,70.50
2023-02-11T14:19:37.843Z,68.33
2023-02-11T14:22:26.617Z,69.67
2023-02-11T14:25:02.574Z,57.97
2023-02-11T14:27:44.149Z,65.53
2023-02-11T14:30:34.952Z,64.90
2023-02-11T14:33:38.265Z,70.03
2023-02-11T14:36:31.213Z,61.97
2023-02-11T14:39:22.459Z,61.53
2023-02-11T14:41:51.080Z,62.27
2023-02-11T14:44:25.613Z,61.67
2023-02-11T14:46:53.702Z,56.67
2023-02-11T14:49:32.584Z,59.60
2023-02-11T14:52:25.347Z,57.30
2023-02-11T14:54:56.940Z,55.87
2023-02-11T14:57:23.526Z,55.20
2023-02-11T15:00:05.960Z,51.23
2023-02-11T15:02:35.905Z,46.07
2023-02-11T15:05:28.962Z,54.03
2023-02-11T15:07:59.459Z,51.40
2023-02-11T15:10:35.282Z,56.83
2023-02-11T15:13:03.622Z,52.30
2023-02-11T15:15:31.483Z,49.83
2023-02-11T15:18:01.468Z,52.53
2023-02-11T15:20:31.759Z,51.60
2023-02-11T15:23:10.910Z,54.87
2023-02-11T15:25:43.902Z,48.07
2023-02-11T15:28:23.717Z,55.80
2023-02-11T15:31:14.098Z,49.60
2023-02-11T15:33:41.194Z,42.43
2023-02-11T15:36:11.369Z,49.97
2023-02-11T15:38:38.072Z,43.53
2023-02-11T15:41:07.436Z,47.37
2023-02-11T15:44:00.401Z,53.07
2023-02-11T15:46:37.596Z,38.53
2023-02-11T15:49:04.781Z,45.50
2023-02-11T15:51:35.375Z,37.27
2023-02-11T15:54:07.645Z,40.80
2023-02-11T15:56:44.083Z,44.07
2023-02-11T15:59:25.702Z,44.40
2023-02-11T16:01:54.184Z,56.03
2023-02-11T16:04:27.083Z,44.67
2023-02-11T16:06:55.333Z,43.67
2023-02-11T16:09:31.304Z,46.53
2023-02-11T16:12:00.711Z,52.30
2023-02-11T16:14:27.268Z,51.47
2023-02-11T16:16:57.586Z,54.07
2023-02-11T16:19:26.876Z,50.73
2023-02-11T16:21:56.461Z,54.77
2023-02-11T16:24:28.643Z,49.63
2023-02-11T16:26:58.940Z,52.00
2023-02-11T16:29:35.215Z,50.87
2023-02-11T16:32:10.299Z,56.63
2023-02-11T16:34:37.457Z,56.77
2023-02-11T16:37:05.522Z,61.80
2023-02-11T16:39:32.495Z,58.57
2023-02-11T16:41:59.352Z,52.33
2023-02-11T16:44:26.128Z,51.30
2023-02-11T16:46:53.242Z,58.60
2023-02-11T16:49:26.510Z,49.53
2023-02-11T16:52:00.945Z,60.03
2023-02-11T16:54:29.319Z,59.23
2023-02-11T16:56:56.844Z,53.87
2023-02-11T16:59:24.259Z,53.00
2023-02-11T17:01:53.588Z,58.13
2023-02-11T17:04:25.303Z,76.07
2023-02-11T17:06:52.189Z,73.43
2023-02-11T17:09:24.589Z,62.17
2023-02-11T17:11:51.834Z,60.47
2023-02-11T17:14:20.019Z,63.57
2023-02-11T17:16:47.851Z,53.80
2023-02-11T17:19:16.843Z,54.93
2023-02-11T17:21:44.767Z,60.83
2023-02-11T17:24:12.214Z,62.83
2023-02-11T17:26:39.007Z,60.27
2023-02-11T17:29:10.223Z,53.23
2023-02-11T17:31:37.213Z,68.23
2023-02-11T17:34:03.896Z,64.03
2023-02-11T17:36:31.286Z,61.43
2023-02-11T17:38:58.728Z,65.57
2023-02-11T17:41:25.711Z,68.07
2023-02-11T17:43:52.444Z,66.17
2023-02-11T17:46:19.330Z,60.43
2023-02-11T17:48:45.932Z,70.13
2023-02-11T17:51:30.500Z,58.87
2023-02-11T17:53:59.267Z,64.30
2023-02-11T17:56:25.860Z,67.10
2023-02-11T17:58:53.114Z,67.07
2023-02-11T18:01:20.375Z,67.87
2023-02-11T18:03:47.033Z,63.67
2023-02-11T18:06:13.671Z,73.43
2023-02-11T18:08:41.803Z,69.60
2023-02-11T18:11:13.430Z,73.47
2023-02-11T18:13:40.037Z,66.33
2023-02-11T18:16:15.383Z,64.50
2023-02-11T18:18:43.160Z,86.40
2023-02-11T18:21:13.811Z,72.70
2023-02-11T18:23:40.425Z,71.87
2023-02-11T18:26:08.246Z,71.13
2023-02-11T18:28:35.159Z,121.50
2023-02-11T18:31:02.243Z,120.63
2023-02-11T18:33:29.808Z,151.50
2023-02-11T18:35:56.823Z,102.90
2023-02-11T18:38:24.493Z,106.50
2023-02-11T18:40:52.272Z,95.20
2023-02-11T18:43:20.403Z,73.83
2023-02-11T18:45:48.945Z,68.37
2023-02-11T18:48:16.814Z,99.53
2023-02-11T18:50:45.418Z,107.43
2023-02-11T18:53:14.009Z,78.47
2023-02-11T18:55:42.395Z,81.67
2023-02-11T18:58:09.622Z,73.40
2023-02-11T19:00:38.608Z,83.57
2023-02-11T19:03:05.321Z,73.27
2023-02-11T19:05:33.384Z,76.70
2023-02-11T19:08:00.888Z,76.73
2023-02-11T19:10:28.119Z,90.17
2023-02-11T19:12:58.981Z,70.13
2023-02-11T19:15:26.341Z,71.90
2023-02-11T19:17:53.024Z,70.50
2023-02-11T19:20:19.698Z,72.67
2023-02-11T19:22:46.368Z,72.97
2023-02-11T19:25:13.622Z,73.37
2023-02-11T19:27:43.226Z,58.63
2023-02-11T19:30:10.829Z,61.70
2023-02-11T19:32:37.445Z,66.63
2023-02-11T19:35:04.249Z,71.37
2023-02-11T19:37:30.868Z,69.27
2023-02-11T19:39:57.519Z,60.90
2023-02-11T19:42:27.562Z,63.20
2023-02-11T19:44:54.369Z,60.33
2023-02-11T19:47:27.463Z,67.60
2023-02-11T19:49:54.700Z,65.10
2023-02-11T19:52:21.333Z,69.70
2023-02-11T19:54:48.040Z,62.27
2023-02-11T19:57:14.624Z,71.00
2023-02-11T19:59:41.329Z,62.00
2023-02-11T20:02:10.186Z,65.10
2023-02-11T20:04:36.848Z,68.70
2023-02-11T20:07:03.499Z,67.27
2023-02-11T20:09:31.679Z,72.03
2023-02-11T20:11:58.918Z,60.37
2023-02-11T20:14:27.816Z,72.73
2023-02-11T20:16:54.711Z,66.03
2023-02-11T20:19:22.101Z,67.73
2023-02-11T20:21:51.886Z,60.53
2023-02-11T20:24:19.405Z,74.63
2023-02-11T20:26:48.154Z,70.40
2023-02-11T20:29:16.277Z,71.20
2023-02-11T20:31:43.305Z,65.20
2023-02-11T20:34:11.379Z,65.13
2023-02-11T20:36:39.135Z,68.13
2023-02-11T20:39:06.942Z,64.47
2023-02-11T20:41:39.061Z,62.17
2023-02-11T20:44:08.483Z,64.10
2023-02-11T20:46:37.018Z,66.00
2023-02-11T20:49:03.763Z,68.57
2023-02-11T20:51:33.269Z,57.90
2023-02-11T20:54:00.894Z,58.20
2023-02-11T20:56:30.363Z,64.37
2023-02-11T20:58:58.440Z,58.93
2023-02-11T21:01:27.701Z,61.13
2023-02-11T21:03:58.453Z,61.63
2023-02-11T21:06:27.146Z,65.77
2023-02-11T21:08:54.200Z,62.77
2023-02-11T21:11:21.136Z,62.97
2023-02-11T21:13:48.645Z,60.57
2023-02-11T21:16:17.966Z,61.50
2023-02-11T21:18:44.575Z,60.93
2023-02-11T21:21:11.623Z,65.63
2023-02-11T21:23:39.712Z,63.97
2023-02-11T21:26:07.854Z,63.57
2023-02-11T21:28:35.199Z,60.63
2023-02-11T21:31:02.922Z,60.87
2023-02-11T21:33:33.425Z,62.53
2023-02-11T21:36:02.004Z,57.77
2023-02-11T21:38:29.476Z,61.33
2023-02-11T21:41:01.845Z,53.10
2023-02-11T21:43:28.586Z,64.10
2023-02-11T21:45:55.561Z,60.90
2023-02-11T21:48:23.736Z,60.07
2023-02-11T21:50:50.321Z,68.37
2023-02-11T21:53:17.077Z,58.27
2023-02-11T21:55:43.754Z,62.83
2023-02-11T21:58:12.605Z,62.83
2023-02-11T22:00:39.649Z,62.43
2023-02-11T22:03:06.443Z,63.33
2023-02-11T22:05:33.112Z,65.33
2023-02-11T22:07:59.924Z,69.23
2023-02-11T22:10:26.589Z,54.23
2023-02-11T22:12:53.189Z,59.67
2023-02-11T22:15:19.786Z,62.07
2023-02-11T22:17:46.408Z,55.23
2023-02-11T22:20:16.466Z,65.13
2023-02-11T22:22:43.165Z,62.57
2023-02-11T22:25:10.014Z,64.27
2023-02-11T22:27:36.606Z,64.73
2023-02-11T22:30:04.628Z,64.77
2023-02-11T22:32:31.238Z,62.60
2023-02-11T22:34:57.888Z,59.83
2023-02-11T22:37:24.460Z,63.37
2023-02-11T22:39:51.053Z,69.60
2023-02-11T22:42:17.658Z,67.57
2023-02-11T22:44:44.473Z,70.43
2023-02-11T22:47:11.058Z,64.40
2023-02-11T22:49:39.447Z,63.70
2023-02-11T22:52:06.031Z,64.27
2023-02-11T22:54:32.645Z,69.70
2023-02-11T22:56:59.265Z,60.83
2023-02-11T22:59:25.849Z,64.43
2023-02-11T23:01:52.483Z,72.23
2023-02-11T23:04:20.789Z,62.53
2023-02-11T23:06:47.711Z,63.53
2023-02-11T23:09:14.368Z,70.50
2023-02-11T23:11:41.444Z,71.87
2023-02-11T23:14:10.027Z,70.20
2023-02-11T23:16:36.676Z,66.97
2023-02-11T23:19:06.815Z,71.03
2023-02-11T23:21:35.400Z,62.10
2023-02-11T23:24:05.429Z,63.00
2023-02-11T23:26:32.089Z,64.10
2023-02-11T23:28:59.789Z,68.63
2023-02-11T23:31:33.941Z,71.70
2023-02-11T23:34:01.350Z,67.73
2023-02-11T23:36:28.496Z,69.73
2023-02-11T23:38:55.254Z,59.17
2023-02-11T23:41:22.351Z,71.03
2023-02-11T23:43:54.347Z,68.37
2023-02-11T23:46:24.754Z,58.67
2023-02-11T23:48:52.420Z,62.80
2023-02-11T23:51:19.614Z,67.67
2023-02-11T23:53:46.608Z,68.77
2023-02-11T23:56:15.983Z,65.57
2023-02-11T23:58:44.606Z,69.57
